Bd5 — BD5 — position and weather

sailwx.info

Track history (hours):
 
Tides and Currents Weather Stations Pressure Air Temp Water Temp Dewpoint Dewpoint Depression Visibility Wind Speed Wind Dir Waves Ship Positions

Bd5

Last reported at 2017-Nov-02 18:45 UTC. Time now 2017-Nov-24 11:04 UTC.
Position N 38°52' W 076°59'.
Warning: this ship's position is 21 days out of date.

Length 10 m.

Type: Military. MMSI: 369970465.

Date/timePositionNaut miles runAvg speedWind from/ knotsBaromVisibWave heightAir tempDewpointWater temp
2017-Nov-02 18:45N 38°52' W 076°59'1 1.3
2017-Nov-02 17:42N 38°52' W 077°01'1 5.1
2017-Nov-02 17:30N 38°52' W 076°60'0 0.2
2017-Nov-02 16:03N 38°52' W 076°59'0 0.8
2017-Nov-02 15:58N 38°52' W 076°59'0 0.1
2017-Nov-02 15:28N 38°52' W 076°59'0 0.0
2017-Nov-02 11:59N 38°52' W 076°59'0 0.0
2017-Nov-01 20:10N 38°52' W 076°59'0 0.0
2017-Nov-01 19:58N 38°52' W 076°59'0 0.0
2017-Oct-31 18:52N 38°52' W 076°59'0 0.0
2017-Oct-31 18:28N 38°52' W 076°59'0 0.0
2017-Oct-31 16:21N 38°52' W 076°59'2 4.5
2017-Oct-31 16:00N 38°52' W 077°01'4 5.0
2017-Oct-31 15:16N 38°54' W 077°04'1 3.6
2017-Oct-31 14:55N 38°53' W 077°03'2 5.1
2017-Oct-31 14:30N 38°52' W 077°02'2 1.7
2017-Oct-31 13:23N 38°52' W 076°59'1 1.6
2017-Oct-31 13:00N 38°52' W 077°00'1 1.2
2017-Oct-31 12:29N 38°52' W 076°59'0 0.0
2017-Oct-30 20:05N 38°52' W 076°59'0 1.1
2017-Oct-30 20:00N 38°52' W 076°59'2 4.0
2017-Oct-30 19:30N 38°52' W 077°02'1 2.8
2017-Oct-30 18:59N 38°53' W 077°03'2 4.4
2017-Oct-30 18:30N 38°52' W 077°01'0 0.9
2017-Oct-30 17:59N 38°52' W 077°01'1 0.7
2017-Oct-30 15:58N 38°52' W 076°59'2 3.8
2017-Oct-30 15:29N 38°51' W 077°01'2 4.0
2017-Oct-30 15:00N 38°53' W 077°03'2 3.9
2017-Oct-30 14:27N 38°52' W 077°00'1 0.7
2017-Oct-30 13:30N 38°52' W 076°59'0 0.0
2017-Oct-30 13:00N 38°52' W 076°59'  
2017-Oct-26 19:29N 38°52' W 076°59'0 0.0
2017-Oct-26 18:59N 38°52' W 076°59'2 4.0
2017-Oct-26 18:30N 38°51' W 077°01'1 1.6
2017-Oct-26 17:59N 38°52' W 077°01'1 1.2
2017-Oct-26 17:30N 38°52' W 077°01'1 0.7
2017-Oct-26 15:35N 38°52' W 076°59'0 0.0
2017-Oct-26 15:29N 38°52' W 076°59'0 0.0
2017-Oct-26 14:59N 38°52' W 076°59'0 0.0
2017-Oct-26 14:29N 38°52' W 076°59'0 0.0
2017-Oct-25 19:58N 38°52' W 076°59'0 0.7
2017-Oct-25 19:30N 38°52' W 076°60'3 5.9
2017-Oct-25 19:00N 38°50' W 077°02'1 2.1
2017-Oct-25 18:31N 38°49' W 077°02'1 1.2
2017-Oct-25 17:58N 38°49' W 077°02'2 3.9
2017-Oct-25 17:30N 38°51' W 077°01'1 1.6
2017-Oct-25 16:59N 38°52' W 077°01'1 0.9
2017-Oct-25 15:37N 38°52' W 076°59'1 5.3
2017-Oct-25 15:30N 38°52' W 077°00'0 0.6
2017-Oct-25 15:00N 38°52' W 077°00'0 0.7
2017-Oct-25 14:30N 38°52' W 077°01'2 4.9
2017-Oct-25 13:59N 38°53' W 077°03'0 0.7
2017-Oct-25 13:27N 38°54' W 077°03'3 6.3
2017-Oct-25 13:00N 38°51' W 077°01'1 2.4
2017-Oct-25 12:30N 38°53' W 077°01'1 2.6
2017-Oct-25 12:00N 38°52' W 076°60'0 0.8
2017-Oct-25 11:30N 38°52' W 076°59'0 0.0
2017-Oct-24 20:13N 38°52' W 076°59'1 2.5
2017-Oct-24 20:00N 38°52' W 076°60'1 2.9
2017-Oct-24 19:29N 38°51' W 077°01'1 1.6
2017-Oct-24 18:59N 38°52' W 077°01'1 2.7
2017-Oct-24 18:29N 38°52' W 076°60'2 3.7
2017-Oct-24 18:00N 38°51' W 077°02'2 0.7
2017-Oct-24 14:53N 38°52' W 076°59'2 4.0
2017-Oct-24 14:30N 38°52' W 077°01'2 4.3
2017-Oct-24 13:59N 38°53' W 077°03'1 2.2
2017-Oct-24 13:30N 38°52' W 077°02'1 1.5
2017-Oct-24 13:00N 38°53' W 077°02'1 2.7
2017-Oct-24 12:30N 38°52' W 077°01'1 2.6
2017-Oct-24 11:58N 38°52' W 076°59'0 0.0
2017-Oct-23 19:56N 38°52' W 076°59'2 4.6
2017-Oct-23 19:30N 38°51' W 077°01'0 0.9
2017-Oct-23 19:00N 38°51' W 077°01'  
Track history (hours):
 
Tides and Currents Weather Stations Pressure Air Temp Water Temp Dewpoint Dewpoint Depression Visibility Wind Speed Wind Dir Waves Ship Positions

Bd5

Last reported at 2017-Nov-02 18:45 UTC. Time now 2017-Nov-24 11:04 UTC.
Position N 38°52' W 076°59'.
Warning: this ship's position is 21 days out of date.

Length 10 m.

Type: Military. MMSI: 369970465.

Date/timePositionNaut miles runAvg speedWind from/ knotsBaromVisibWave heightAir tempDewpointWater temp
2017-Nov-02 18:45N 38°52' W 076°59'1 1.3
2017-Nov-02 17:42N 38°52' W 077°01'1 5.1
2017-Nov-02 17:30N 38°52' W 076°60'0 0.2
2017-Nov-02 16:03N 38°52' W 076°59'0 0.8
2017-Nov-02 15:58N 38°52' W 076°59'0 0.1
2017-Nov-02 15:28N 38°52' W 076°59'0 0.0
2017-Nov-02 11:59N 38°52' W 076°59'0 0.0
2017-Nov-01 20:10N 38°52' W 076°59'0 0.0
2017-Nov-01 19:58N 38°52' W 076°59'0 0.0
2017-Oct-31 18:52N 38°52' W 076°59'0 0.0
2017-Oct-31 18:28N 38°52' W 076°59'0 0.0
2017-Oct-31 16:21N 38°52' W 076°59'2 4.5
2017-Oct-31 16:00N 38°52' W 077°01'4 5.0
2017-Oct-31 15:16N 38°54' W 077°04'1 3.6
2017-Oct-31 14:55N 38°53' W 077°03'2 5.1
2017-Oct-31 14:30N 38°52' W 077°02'2 1.7
2017-Oct-31 13:23N 38°52' W 076°59'1 1.6
2017-Oct-31 13:00N 38°52' W 077°00'1 1.2
2017-Oct-31 12:29N 38°52' W 076°59'0 0.0
2017-Oct-30 20:05N 38°52' W 076°59'0 1.1
2017-Oct-30 20:00N 38°52' W 076°59'2 4.0
2017-Oct-30 19:30N 38°52' W 077°02'1 2.8
2017-Oct-30 18:59N 38°53' W 077°03'2 4.4
2017-Oct-30 18:30N 38°52' W 077°01'0 0.9
2017-Oct-30 17:59N 38°52' W 077°01'1 0.7
2017-Oct-30 15:58N 38°52' W 076°59'2 3.8
2017-Oct-30 15:29N 38°51' W 077°01'2 4.0
2017-Oct-30 15:00N 38°53' W 077°03'2 3.9
2017-Oct-30 14:27N 38°52' W 077°00'1 0.7
2017-Oct-30 13:30N 38°52' W 076°59'0 0.0
2017-Oct-30 13:00N 38°52' W 076°59'  
2017-Oct-26 19:29N 38°52' W 076°59'0 0.0
2017-Oct-26 18:59N 38°52' W 076°59'2 4.0
2017-Oct-26 18:30N 38°51' W 077°01'1 1.6
2017-Oct-26 17:59N 38°52' W 077°01'1 1.2
2017-Oct-26 17:30N 38°52' W 077°01'1 0.7
2017-Oct-26 15:35N 38°52' W 076°59'0 0.0
2017-Oct-26 15:29N 38°52' W 076°59'0 0.0
2017-Oct-26 14:59N 38°52' W 076°59'0 0.0
2017-Oct-26 14:29N 38°52' W 076°59'0 0.0
2017-Oct-25 19:58N 38°52' W 076°59'0 0.7
2017-Oct-25 19:30N 38°52' W 076°60'3 5.9
2017-Oct-25 19:00N 38°50' W 077°02'1 2.1
2017-Oct-25 18:31N 38°49' W 077°02'1 1.2
2017-Oct-25 17:58N 38°49' W 077°02'2 3.9
2017-Oct-25 17:30N 38°51' W 077°01'1 1.6
2017-Oct-25 16:59N 38°52' W 077°01'1 0.9
2017-Oct-25 15:37N 38°52' W 076°59'1 5.3
2017-Oct-25 15:30N 38°52' W 077°00'0 0.6
2017-Oct-25 15:00N 38°52' W 077°00'0 0.7
2017-Oct-25 14:30N 38°52' W 077°01'2 4.9
2017-Oct-25 13:59N 38°53' W 077°03'0 0.7
2017-Oct-25 13:27N 38°54' W 077°03'3 6.3
2017-Oct-25 13:00N 38°51' W 077°01'1 2.4
2017-Oct-25 12:30N 38°53' W 077°01'1 2.6
2017-Oct-25 12:00N 38°52' W 076°60'0 0.8
2017-Oct-25 11:30N 38°52' W 076°59'0 0.0
2017-Oct-24 20:13N 38°52' W 076°59'1 2.5
2017-Oct-24 20:00N 38°52' W 076°60'1 2.9
2017-Oct-24 19:29N 38°51' W 077°01'1 1.6
2017-Oct-24 18:59N 38°52' W 077°01'1 2.7
2017-Oct-24 18:29N 38°52' W 076°60'2 3.7
2017-Oct-24 18:00N 38°51' W 077°02'2 0.7
2017-Oct-24 14:53N 38°52' W 076°59'2 4.0
2017-Oct-24 14:30N 38°52' W 077°01'2 4.3
2017-Oct-24 13:59N 38°53' W 077°03'1 2.2
2017-Oct-24 13:30N 38°52' W 077°02'1 1.5
2017-Oct-24 13:00N 38°53' W 077°02'1 2.7
2017-Oct-24 12:30N 38°52' W 077°01'1 2.6
2017-Oct-24 11:58N 38°52' W 076°59'0 0.0
2017-Oct-23 19:56N 38°52' W 076°59'2 4.6
2017-Oct-23 19:30N 38°51' W 077°01'0 0.9
2017-Oct-23 19:00N 38°51' W 077°01'  

Dump ship's entire track history